sensor_id;sensor_type;location;lat;lon;timestamp;P1;P2;P0
77320;PMS7003;66382;52.252;8.780;2024-02-16T00:01:00;1.00;1.00;0.75
77320;PMS7003;66382;52.252;8.780;2024-02-16T00:03:25;4.00;4.00;3.00
77320;PMS7003;66382;52.252;8.780;2024-02-16T00:05:51;3.00;3.00;3.00
77320;PMS7003;66382;52.252;8.780;2024-02-16T00:08:16;3.00;3.00;2.33
77320;PMS7003;66382;52.252;8.780;2024-02-16T00:10:42;4.00;4.00;3.00
77320;PMS7003;66382;52.252;8.780;2024-02-16T00:13:07;2.67;2.67;2.00
77320;PMS7003;66382;52.252;8.780;2024-02-16T00:15:34;2.00;2.00;2.00
77320;PMS7003;66382;52.252;8.780;2024-02-16T00:18:00;2.75;2.75;2.75
77320;PMS7003;66382;52.252;8.780;2024-02-16T00:20:25;2.00;2.00;2.00
77320;PMS7003;66382;52.252;8.780;2024-02-16T00:22:51;2.00;2.00;1.33
77320;PMS7003;66382;52.252;8.780;2024-02-16T00:25:16;1.33;1.33;1.33
77320;PMS7003;66382;52.252;8.780;2024-02-16T00:27:41;2.00;2.00;2.00
77320;PMS7003;66382;52.252;8.780;2024-02-16T00:30:07;1.67;1.67;1.33
77320;PMS7003;66382;52.252;8.780;2024-02-16T00:32:35;3.50;3.50;3.00
77320;PMS7003;66382;52.252;8.780;2024-02-16T00:35:00;3.00;3.00;3.00
77320;PMS7003;66382;52.252;8.780;2024-02-16T00:37:26;2.67;2.67;2.00
77320;PMS7003;66382;52.252;8.780;2024-02-16T00:39:51;4.00;4.00;2.67
77320;PMS7003;66382;52.252;8.780;2024-02-16T00:42:17;3.00;3.00;3.00
77320;PMS7003;66382;52.252;8.780;2024-02-16T00:44:42;3.00;3.00;3.00
77320;PMS7003;66382;52.252;8.780;2024-02-16T00:47:07;3.00;3.00;3.00
77320;PMS7003;66382;52.252;8.780;2024-02-16T00:49:34;3.00;3.00;2.00
77320;PMS7003;66382;52.252;8.780;2024-02-16T00:52:00;3.00;3.00;2.25
77320;PMS7003;66382;52.252;8.780;2024-02-16T00:54:25;4.00;4.00;3.00
77320;PMS7003;66382;52.252;8.780;2024-02-16T00:56:50;3.00;3.00;2.00
77320;PMS7003;66382;52.252;8.780;2024-02-16T00:59:16;3.00;3.00;2.00
77320;PMS7003;66382;52.252;8.780;2024-02-16T01:01:41;3.00;3.00;3.00
77320;PMS7003;66382;52.252;8.780;2024-02-16T01:04:07;4.00;4.00;2.67
77320;PMS7003;66382;52.252;8.780;2024-02-16T01:06:33;4.00;4.00;3.33
77320;PMS7003;66382;52.252;8.780;2024-02-16T01:08:59;4.75;4.75;3.00
77320;PMS7003;66382;52.252;8.780;2024-02-16T01:11:24;3.00;3.00;2.67
77320;PMS7003;66382;52.252;8.780;2024-02-16T01:13:50;3.00;3.00;3.00
77320;PMS7003;66382;52.252;8.780;2024-02-16T01:16:15;3.67;3.67;3.00
77320;PMS7003;66382;52.252;8.780;2024-02-16T01:18:41;2.67;2.67;2.00
77320;PMS7003;66382;52.252;8.780;2024-02-16T01:21:06;2.00;2.00;2.00
77320;PMS7003;66382;52.252;8.780;2024-02-16T01:23:33;2.00;2.00;1.00
77320;PMS7003;66382;52.252;8.780;2024-02-16T01:25:58;3.75;3.75;3.25
77320;PMS7003;66382;52.252;8.780;2024-02-16T01:28:24;2.00;2.00;2.00
77320;PMS7003;66382;52.252;8.780;2024-02-16T01:30:49;3.00;3.00;3.00
77320;PMS7003;66382;52.252;8.780;2024-02-16T01:33:15;2.00;2.00;1.33
77320;PMS7003;66382;52.252;8.780;2024-02-16T01:35:41;1.67;1.67;1.67
77320;PMS7003;66382;52.252;8.780;2024-02-16T01:38:06;3.00;3.00;2.00
77320;PMS7003;66382;52.252;8.780;2024-02-16T01:40:33;3.00;3.00;3.00
77320;PMS7003;66382;52.252;8.780;2024-02-16T01:42:58;3.25;3.25;2.75
77320;PMS7003;66382;52.252;8.780;2024-02-16T01:45:24;2.00;2.00;2.00
77320;PMS7003;66382;52.252;8.780;2024-02-16T01:47:50;3.00;3.00;3.00
77320;PMS7003;66382;52.252;8.780;2024-02-16T01:50:17;3.00;3.00;2.25
77320;PMS7003;66382;52.252;8.780;2024-02-16T01:52:44;2.75;2.75;1.75
77320;PMS7003;66382;52.252;8.780;2024-02-16T01:55:11;2.25;2.25;2.00
77320;PMS7003;66382;52.252;8.780;2024-02-16T01:57:39;3.75;3.75;3.50
77320;PMS7003;66382;52.252;8.780;2024-02-16T02:00:05;3.00;3.00;3.00
77320;PMS7003;66382;52.252;8.780;2024-02-16T02:02:31;3.75;3.75;3.00
77320;PMS7003;66382;52.252;8.780;2024-02-16T02:04:56;2.00;2.00;2.00
77320;PMS7003;66382;52.252;8.780;2024-02-16T02:07:24;3.67;3.67;3.00
77320;PMS7003;66382;52.252;8.780;2024-02-16T02:09:50;2.75;2.75;2.50
77320;PMS7003;66382;52.252;8.780;2024-02-16T02:12:16;3.33;3.33;3.00
77320;PMS7003;66382;52.252;8.780;2024-02-16T02:14:43;3.67;3.67;3.00
77320;PMS7003;66382;52.252;8.780;2024-02-16T02:17:08;3.00;3.00;2.25
77320;PMS7003;66382;52.252;8.780;2024-02-16T02:19:34;3.00;3.00;2.00
77320;PMS7003;66382;52.252;8.780;2024-02-16T02:21:59;3.25;3.25;3.00
77320;PMS7003;66382;52.252;8.780;2024-02-16T02:24:26;3.33;3.33;3.00
77320;PMS7003;66382;52.252;8.780;2024-02-16T02:26:52;3.00;3.00;3.00
77320;PMS7003;66382;52.252;8.780;2024-02-16T02:29:17;1.67;1.67;1.67
77320;PMS7003;66382;52.252;8.780;2024-02-16T02:31:43;3.67;3.67;3.00
77320;PMS7003;66382;52.252;8.780;2024-02-16T02:34:08;3.00;3.00;3.00
77320;PMS7003;66382;52.252;8.780;2024-02-16T02:36:34;4.50;4.50;4.00
77320;PMS7003;66382;52.252;8.780;2024-02-16T02:38:59;3.00;3.00;3.00
77320;PMS7003;66382;52.252;8.780;2024-02-16T02:41:26;3.33;3.33;3.00
77320;PMS7003;66382;52.252;8.780;2024-02-16T02:43:52;3.00;3.00;2.75
77320;PMS7003;66382;52.252;8.780;2024-02-16T02:46:17;2.00;2.00;2.00
77320;PMS7003;66382;52.252;8.780;2024-02-16T02:48:43;3.00;3.00;2.33
77320;PMS7003;66382;52.252;8.780;2024-02-16T02:51:10;2.00;2.00;2.00
77320;PMS7003;66382;52.252;8.780;2024-02-16T02:53:35;3.67;3.67;2.67
77320;PMS7003;66382;52.252;8.780;2024-02-16T02:56:01;3.00;3.00;3.00
77320;PMS7003;66382;52.252;8.780;2024-02-16T02:58:28;5.00;5.00;4.33
77320;PMS7003;66382;52.252;8.780;2024-02-16T03:00:53;3.00;3.00;3.00
77320;PMS7003;66382;52.252;8.780;2024-02-16T03:03:19;3.00;3.00;3.00
77320;PMS7003;66382;52.252;8.780;2024-02-16T03:05:44;5.00;5.00;4.67
77320;PMS7003;66382;52.252;8.780;2024-02-16T03:08:10;4.00;4.00;3.67
77320;PMS7003;66382;52.252;8.780;2024-02-16T03:10:35;5.00;5.00;4.33
77320;PMS7003;66382;52.252;8.780;2024-02-16T03:13:01;4.33;4.33;4.00
77320;PMS7003;66382;52.252;8.780;2024-02-16T03:15:27;2.67;2.67;2.00
77320;PMS7003;66382;52.252;8.780;2024-02-16T03:17:53;3.50;3.50;3.00
77320;PMS7003;66382;52.252;8.780;2024-02-16T03:20:18;3.00;3.00;2.33
77320;PMS7003;66382;52.252;8.780;2024-02-16T03:22:44;3.33;3.33;2.33
77320;PMS7003;66382;52.252;8.780;2024-02-16T03:25:09;3.33;3.00;3.00
77320;PMS7003;66382;52.252;8.780;2024-02-16T03:27:35;3.67;3.67;2.67
77320;PMS7003;66382;52.252;8.780;2024-02-16T03:30:00;3.00;3.00;2.00
77320;PMS7003;66382;52.252;8.780;2024-02-16T03:32:27;3.00;3.00;2.33
77320;PMS7003;66382;52.252;8.780;2024-02-16T03:34:52;2.75;2.75;2.75
77320;PMS7003;66382;52.252;8.780;2024-02-16T03:37:18;3.00;3.00;3.00
77320;PMS7003;66382;52.252;8.780;2024-02-16T03:39:43;3.67;3.67;3.00
77320;PMS7003;66382;52.252;8.780;2024-02-16T03:42:09;2.67;2.67;2.00
77320;PMS7003;66382;52.252;8.780;2024-02-16T03:44:34;3.00;3.00;3.00
77320;PMS7003;66382;52.252;8.780;2024-02-16T03:46:59;3.00;3.00;2.00
77320;PMS7003;66382;52.252;8.780;2024-02-16T03:49:26;4.00;4.00;3.00
77320;PMS7003;66382;52.252;8.780;2024-02-16T03:54:54;4.00;4.00;3.75
77320;PMS7003;66382;52.252;8.780;2024-02-16T03:57:20;3.67;3.67;3.00
77320;PMS7003;66382;52.252;8.780;2024-02-16T03:59:45;3.00;3.00;3.00
77320;PMS7003;66382;52.252;8.780;2024-02-16T04:02:11;3.00;3.00;2.67
77320;PMS7003;66382;52.252;8.780;2024-02-16T04:04:38;3.00;3.00;2.67
77320;PMS7003;66382;52.252;8.780;2024-02-16T04:07:03;4.00;4.00;3.25
77320;PMS7003;66382;52.252;8.780;2024-02-16T04:09:29;3.67;3.67;3.00
77320;PMS7003;66382;52.252;8.780;2024-02-16T04:11:54;3.33;3.33;3.00
77320;PMS7003;66382;52.252;8.780;2024-02-16T04:14:20;2.67;2.67;2.00
77320;PMS7003;66382;52.252;8.780;2024-02-16T04:16:45;3.00;3.00;3.00
77320;PMS7003;66382;52.252;8.780;2024-02-16T04:19:10;3.67;3.67;3.00
77320;PMS7003;66382;52.252;8.780;2024-02-16T04:21:37;3.00;3.00;3.00
77320;PMS7003;66382;52.252;8.780;2024-02-16T04:24:03;2.00;2.00;2.00
77320;PMS7003;66382;52.252;8.780;2024-02-16T04:26:28;3.00;3.00;3.00
77320;PMS7003;66382;52.252;8.780;2024-02-16T04:28:54;3.00;3.00;3.00
77320;PMS7003;66382;52.252;8.780;2024-02-16T04:31:19;3.00;3.00;3.00
77320;PMS7003;66382;52.252;8.780;2024-02-16T04:33:45;4.00;4.00;3.33
77320;PMS7003;66382;52.252;8.780;2024-02-16T04:36:10;3.33;3.33;3.00
77320;PMS7003;66382;52.252;8.780;2024-02-16T04:38:37;2.00;2.00;2.00
77320;PMS7003;66382;52.252;8.780;2024-02-16T04:41:04;3.75;3.75;3.25
77320;PMS7003;66382;52.252;8.780;2024-02-16T04:43:29;4.00;4.00;3.33
77320;PMS7003;66382;52.252;8.780;2024-02-16T04:45:55;4.00;4.00;3.00
77320;PMS7003;66382;52.252;8.780;2024-02-16T04:48:20;3.00;3.00;3.00
77320;PMS7003;66382;52.252;8.780;2024-02-16T04:50:46;2.00;2.00;2.00
77320;PMS7003;66382;52.252;8.780;2024-02-16T04:53:11;3.00;3.00;3.00
77320;PMS7003;66382;52.252;8.780;2024-02-16T04:55:38;3.00;3.00;3.00
77320;PMS7003;66382;52.252;8.780;2024-02-16T04:58:03;3.50;3.50;3.00
77320;PMS7003;66382;52.252;8.780;2024-02-16T05:00:29;3.33;3.33;3.00
77320;PMS7003;66382;52.252;8.780;2024-02-16T05:02:54;4.00;4.00;3.00
77320;PMS7003;66382;52.252;8.780;2024-02-16T05:05:19;2.33;2.33;2.00
77320;PMS7003;66382;52.252;8.780;2024-02-16T05:07:46;3.00;3.00;3.00
77320;PMS7003;66382;52.252;8.780;2024-02-16T05:10:13;4.25;4.25;3.25
77320;PMS7003;66382;52.252;8.780;2024-02-16T05:12:40;4.00;4.00;3.67
77320;PMS7003;66382;52.252;8.780;2024-02-16T05:15:05;3.25;3.25;3.00
77320;PMS7003;66382;52.252;8.780;2024-02-16T05:17:31;3.00;3.00;3.00
77320;PMS7003;66382;52.252;8.780;2024-02-16T05:19:56;5.00;5.00;3.67
77320;PMS7003;66382;52.252;8.780;2024-02-16T05:22:22;3.00;3.00;3.00
77320;PMS7003;66382;52.252;8.780;2024-02-16T05:24:47;4.00;4.00;4.00
77320;PMS7003;66382;52.252;8.780;2024-02-16T05:27:13;5.00;5.00;3.67
77320;PMS7003;66382;52.252;8.780;2024-02-16T05:29:39;6.00;6.00;5.00
77320;PMS7003;66382;52.252;8.780;2024-02-16T05:32:05;5.67;5.67;4.33
77320;PMS7003;66382;52.252;8.780;2024-02-16T05:34:31;6.33;6.33;5.33
77320;PMS7003;66382;52.252;8.780;2024-02-16T05:36:56;5.00;5.00;3.00
77320;PMS7003;66382;52.252;8.780;2024-02-16T05:39:22;2.00;2.00;2.00
77320;PMS7003;66382;52.252;8.780;2024-02-16T05:41:47;2.33;2.33;2.33
77320;PMS7003;66382;52.252;8.780;2024-02-16T05:44:13;3.00;3.00;2.33
77320;PMS7003;66382;52.252;8.780;2024-02-16T05:46:39;4.00;4.00;4.00
77320;PMS7003;66382;52.252;8.780;2024-02-16T05:49:05;3.67;3.67;3.00
77320;PMS7003;66382;52.252;8.780;2024-02-16T05:51:34;3.00;3.00;3.00
77320;PMS7003;66382;52.252;8.780;2024-02-16T05:53:59;3.33;3.33;3.00
77320;PMS7003;66382;52.252;8.780;2024-02-16T05:56:25;3.67;3.67;3.00
77320;PMS7003;66382;52.252;8.780;2024-02-16T05:58:50;3.00;3.00;2.33
77320;PMS7003;66382;52.252;8.780;2024-02-16T06:01:16;4.67;4.67;3.67
77320;PMS7003;66382;52.252;8.780;2024-02-16T06:03:42;3.67;3.67;3.00
77320;PMS7003;66382;52.252;8.780;2024-02-16T06:06:08;3.67;3.67;3.00
77320;PMS7003;66382;52.252;8.780;2024-02-16T06:08:33;4.00;4.00;4.00
77320;PMS7003;66382;52.252;8.780;2024-02-16T06:10:59;5.00;5.00;5.00
77320;PMS7003;66382;52.252;8.780;2024-02-16T06:13:24;3.67;3.67;3.00
77320;PMS7003;66382;52.252;8.780;2024-02-16T06:15:50;4.00;4.00;4.00
77320;PMS7003;66382;52.252;8.780;2024-02-16T06:18:15;5.00;5.00;3.67
77320;PMS7003;66382;52.252;8.780;2024-02-16T06:20:42;4.33;4.33;3.33
77320;PMS7003;66382;52.252;8.780;2024-02-16T06:23:07;5.00;4.00;3.00
77320;PMS7003;66382;52.252;8.780;2024-02-16T06:25:33;4.67;4.67;3.67
77320;PMS7003;66382;52.252;8.780;2024-02-16T06:27:58;5.67;5.67;4.00
77320;PMS7003;66382;52.252;8.780;2024-02-16T06:30:23;5.33;5.33;5.00
77320;PMS7003;66382;52.252;8.780;2024-02-16T06:32:49;8.67;8.67;7.00
77320;PMS7003;66382;52.252;8.780;2024-02-16T06:35:14;6.00;6.00;6.00
77320;PMS7003;66382;52.252;8.780;2024-02-16T06:37:41;7.00;7.00;6.00
77320;PMS7003;66382;52.252;8.780;2024-02-16T06:40:07;6.00;6.00;5.00
77320;PMS7003;66382;52.252;8.780;2024-02-16T06:42:33;7.67;7.67;5.67
77320;PMS7003;66382;52.252;8.780;2024-02-16T06:44:58;4.33;4.33;4.00
77320;PMS7003;66382;52.252;8.780;2024-02-16T06:47:24;4.00;4.00;3.33
77320;PMS7003;66382;52.252;8.780;2024-02-16T06:49:49;5.00;5.00;4.00
77320;PMS7003;66382;52.252;8.780;2024-02-16T06:52:15;5.00;5.00;4.00
77320;PMS7003;66382;52.252;8.780;2024-02-16T06:54:41;6.00;6.00;5.00
77320;PMS7003;66382;52.252;8.780;2024-02-16T06:57:07;4.00;4.00;3.67
77320;PMS7003;66382;52.252;8.780;2024-02-16T06:59:32;5.00;5.00;4.00
77320;PMS7003;66382;52.252;8.780;2024-02-16T07:01:58;4.00;4.00;3.00
77320;PMS7003;66382;52.252;8.780;2024-02-16T07:04:23;5.00;5.00;4.00
77320;PMS7003;66382;52.252;8.780;2024-02-16T07:06:49;5.00;5.00;4.00
77320;PMS7003;66382;52.252;8.780;2024-02-16T07:09:14;6.00;6.00;5.00
77320;PMS7003;66382;52.252;8.780;2024-02-16T07:11:41;5.33;5.33;4.67
77320;PMS7003;66382;52.252;8.780;2024-02-16T07:14:06;2.67;2.67;2.00
77320;PMS7003;66382;52.252;8.780;2024-02-16T07:16:32;3.00;3.00;3.00
77320;PMS7003;66382;52.252;8.780;2024-02-16T07:18:57;6.00;6.00;5.00
77320;PMS7003;66382;52.252;8.780;2024-02-16T07:21:23;5.00;5.00;4.00
77320;PMS7003;66382;52.252;8.780;2024-02-16T07:23:48;5.33;5.33;5.00
77320;PMS7003;66382;52.252;8.780;2024-02-16T07:26:13;6.00;6.00;5.00
77320;PMS7003;66382;52.252;8.780;2024-02-16T07:28:40;7.33;7.33;6.00
77320;PMS7003;66382;52.252;8.780;2024-02-16T07:31:06;7.00;7.00;6.00
77320;PMS7003;66382;52.252;8.780;2024-02-16T07:33:31;4.67;4.67;3.33
77320;PMS7003;66382;52.252;8.780;2024-02-16T07:35:57;7.00;7.00;6.00
77320;PMS7003;66382;52.252;8.780;2024-02-16T07:38:22;5.67;5.67;4.00
77320;PMS7003;66382;52.252;8.780;2024-02-16T07:40:48;4.00;4.00;4.00
77320;PMS7003;66382;52.252;8.780;2024-02-16T07:43:13;4.00;4.00;3.00
77320;PMS7003;66382;52.252;8.780;2024-02-16T07:45:40;3.67;3.67;3.00
77320;PMS7003;66382;52.252;8.780;2024-02-16T07:48:06;4.75;4.75;3.75
77320;PMS7003;66382;52.252;8.780;2024-02-16T07:50:32;5.00;5.00;4.50
77320;PMS7003;66382;52.252;8.780;2024-02-16T07:52:57;5.00;5.00;4.00
77320;PMS7003;66382;52.252;8.780;2024-02-16T07:55:22;6.00;6.00;5.00
77320;PMS7003;66382;52.252;8.780;2024-02-16T07:57:48;3.67;3.67;3.00
77320;PMS7003;66382;52.252;8.780;2024-02-16T08:00:14;4.67;4.67;4.33
77320;PMS7003;66382;52.252;8.780;2024-02-16T08:02:41;5.00;5.00;4.50
77320;PMS7003;66382;52.252;8.780;2024-02-16T08:05:06;6.25;5.00;4.25
77320;PMS7003;66382;52.252;8.780;2024-02-16T08:07:32;5.33;5.33;4.33
77320;PMS7003;66382;52.252;8.780;2024-02-16T08:09:57;2.67;2.67;2.67
77320;PMS7003;66382;52.252;8.780;2024-02-16T08:12:23;3.67;3.67;2.67
77320;PMS7003;66382;52.252;8.780;2024-02-16T08:14:48;3.00;3.00;2.67
77320;PMS7003;66382;52.252;8.780;2024-02-16T08:17:14;3.67;3.67;3.67
77320;PMS7003;66382;52.252;8.780;2024-02-16T08:19:40;3.67;3.67;3.00
77320;PMS7003;66382;52.252;8.780;2024-02-16T08:22:06;3.00;3.00;3.00
77320;PMS7003;66382;52.252;8.780;2024-02-16T08:24:33;3.25;3.25;3.00
77320;PMS7003;66382;52.252;8.780;2024-02-16T08:26:59;2.67;2.67;2.33
77320;PMS7003;66382;52.252;8.780;2024-02-16T08:29:24;3.00;3.00;2.67
77320;PMS7003;66382;52.252;8.780;2024-02-16T08:31:50;4.00;4.00;3.67
77320;PMS7003;66382;52.252;8.780;2024-02-16T08:34:15;4.67;4.67;4.00
77320;PMS7003;66382;52.252;8.780;2024-02-16T08:36:44;3.00;3.00;2.67
77320;PMS7003;66382;52.252;8.780;2024-02-16T08:39:10;2.75;2.75;2.00
77320;PMS7003;66382;52.252;8.780;2024-02-16T08:41:35;3.00;3.00;3.00
77320;PMS7003;66382;52.252;8.780;2024-02-16T08:44:01;2.67;2.67;2.67
77320;PMS7003;66382;52.252;8.780;2024-02-16T08:46:26;2.33;2.33;2.00
77320;PMS7003;66382;52.252;8.780;2024-02-16T08:48:51;3.67;3.67;2.67
77320;PMS7003;66382;52.252;8.780;2024-02-16T08:51:17;1.67;1.67;1.67
77320;PMS7003;66382;52.252;8.780;2024-02-16T08:53:44;4.00;4.00;3.33
77320;PMS7003;66382;52.252;8.780;2024-02-16T08:56:09;4.25;4.25;3.75
77320;PMS7003;66382;52.252;8.780;2024-02-16T08:58:35;3.33;3.33;2.33
77320;PMS7003;66382;52.252;8.780;2024-02-16T09:01:01;4.33;4.33;4.00
77320;PMS7003;66382;52.252;8.780;2024-02-16T09:03:26;4.33;4.33;2.67
77320;PMS7003;66382;52.252;8.780;2024-02-16T09:05:51;3.00;3.00;2.67
77320;PMS7003;66382;52.252;8.780;2024-02-16T09:08:17;4.00;4.00;3.00
77320;PMS7003;66382;52.252;8.780;2024-02-16T09:10:44;3.33;3.33;2.67
77320;PMS7003;66382;52.252;8.780;2024-02-16T09:13:09;3.25;3.25;3.00
77320;PMS7003;66382;52.252;8.780;2024-02-16T09:15:34;5.00;5.00;4.00
77320;PMS7003;66382;52.252;8.780;2024-02-16T09:18:00;3.00;3.00;3.00
77320;PMS7003;66382;52.252;8.780;2024-02-16T09:20:25;4.00;4.00;3.33
77320;PMS7003;66382;52.252;8.780;2024-02-16T09:22:51;4.00;4.00;3.33
77320;PMS7003;66382;52.252;8.780;2024-02-16T09:25:16;2.33;2.33;2.33
77320;PMS7003;66382;52.252;8.780;2024-02-16T09:27:43;2.67;2.67;2.33
77320;PMS7003;66382;52.252;8.780;2024-02-16T09:30:09;3.00;3.00;2.00
77320;PMS7003;66382;52.252;8.780;2024-02-16T09:32:35;3.00;3.00;2.25
77320;PMS7003;66382;52.252;8.780;2024-02-16T09:35:00;4.00;4.00;4.00
77320;PMS7003;66382;52.252;8.780;2024-02-16T09:37:26;5.00;5.00;3.67
77320;PMS7003;66382;52.252;8.780;2024-02-16T09:39:51;1.33;1.33;1.00
77320;PMS7003;66382;52.252;8.780;2024-02-16T09:42:16;4.00;4.00;2.67
77320;PMS7003;66382;52.252;8.780;2024-02-16T09:44:43;3.00;3.00;2.00
77320;PMS7003;66382;52.252;8.780;2024-02-16T09:47:10;3.25;3.25;3.00
77320;PMS7003;66382;52.252;8.780;2024-02-16T09:49:36;4.00;4.00;3.00
77320;PMS7003;66382;52.252;8.780;2024-02-16T09:52:02;3.00;3.00;2.00
77320;PMS7003;66382;52.252;8.780;2024-02-16T09:54:29;2.25;2.25;1.25
77320;PMS7003;66382;52.252;8.780;2024-02-16T09:56:56;3.00;3.00;3.00
77320;PMS7003;66382;52.252;8.780;2024-02-16T09:59:22;3.00;3.00;2.00
77320;PMS7003;66382;52.252;8.780;2024-02-16T10:01:48;2.00;2.00;2.00
77320;PMS7003;66382;52.252;8.780;2024-02-16T10:04:24;2.00;2.00;1.75
77320;PMS7003;66382;52.252;8.780;2024-02-16T10:06:49;3.00;3.00;2.00
77320;PMS7003;66382;52.252;8.780;2024-02-16T10:09:24;3.00;3.00;2.00
77320;PMS7003;66382;52.252;8.780;2024-02-16T10:11:50;4.00;4.00;3.00
77320;PMS7003;66382;52.252;8.780;2024-02-16T10:14:16;3.00;3.00;3.00
77320;PMS7003;66382;52.252;8.780;2024-02-16T10:16:41;2.00;2.00;2.00
77320;PMS7003;66382;52.252;8.780;2024-02-16T10:19:08;2.00;2.00;2.00
77320;PMS7003;66382;52.252;8.780;2024-02-16T10:21:33;3.25;3.25;3.00
77320;PMS7003;66382;52.252;8.780;2024-02-16T10:24:00;4.00;4.00;3.00
77320;PMS7003;66382;52.252;8.780;2024-02-16T10:26:26;4.00;4.00;4.00
77320;PMS7003;66382;52.252;8.780;2024-02-16T10:28:53;4.00;4.00;4.00
77320;PMS7003;66382;52.252;8.780;2024-02-16T10:31:20;3.75;3.75;3.00
77320;PMS7003;66382;52.252;8.780;2024-02-16T10:33:47;4.00;4.00;3.00
77320;PMS7003;66382;52.252;8.780;2024-02-16T10:36:14;4.67;4.67;3.33
77320;PMS7003;66382;52.252;8.780;2024-02-16T10:38:40;4.25;4.25;3.25
77320;PMS7003;66382;52.252;8.780;2024-02-16T10:41:07;3.25;3.25;2.50
77320;PMS7003;66382;52.252;8.780;2024-02-16T10:43:34;2.00;2.00;2.00
77320;PMS7003;66382;52.252;8.780;2024-02-16T10:45:59;4.00;4.00;3.00
77320;PMS7003;66382;52.252;8.780;2024-02-16T10:48:25;3.75;3.75;3.25
77320;PMS7003;66382;52.252;8.780;2024-02-16T10:50:51;4.00;4.00;3.33
77320;PMS7003;66382;52.252;8.780;2024-02-16T10:53:21;5.50;5.50;3.75
77320;PMS7003;66382;52.252;8.780;2024-02-16T10:55:50;4.25;4.25;3.00
77320;PMS7003;66382;52.252;8.780;2024-02-16T10:58:16;3.00;3.00;3.00
77320;PMS7003;66382;52.252;8.780;2024-02-16T11:00:49;4.00;4.00;3.00
77320;PMS7003;66382;52.252;8.780;2024-02-16T11:03:16;3.25;3.25;3.00
77320;PMS7003;66382;52.252;8.780;2024-02-16T11:05:42;3.25;3.25;3.00
77320;PMS7003;66382;52.252;8.780;2024-02-16T11:08:11;2.33;2.33;1.67
77320;PMS7003;66382;52.252;8.780;2024-02-16T11:10:39;3.75;3.75;3.00
77320;PMS7003;66382;52.252;8.780;2024-02-16T11:13:05;4.00;4.00;3.25
77320;PMS7003;66382;52.252;8.780;2024-02-16T11:15:31;5.00;4.00;3.00
77320;PMS7003;66382;52.252;8.780;2024-02-16T11:17:57;1.00;1.00;1.00
77320;PMS7003;66382;52.252;8.780;2024-02-16T11:20:23;4.00;4.00;3.00
77320;PMS7003;66382;52.252;8.780;2024-02-16T11:22:50;5.00;5.00;4.00
77320;PMS7003;66382;52.252;8.780;2024-02-16T11:25:16;5.75;5.75;4.50
77320;PMS7003;66382;52.252;8.780;2024-02-16T11:27:44;4.00;4.00;4.00
77320;PMS7003;66382;52.252;8.780;2024-02-16T11:30:10;5.00;5.00;4.00
77320;PMS7003;66382;52.252;8.780;2024-02-16T11:32:36;4.25;4.25;3.00
77320;PMS7003;66382;52.252;8.780;2024-02-16T11:35:05;6.00;6.00;5.00
77320;PMS7003;66382;52.252;8.780;2024-02-16T11:37:30;5.00;5.00;4.25
77320;PMS7003;66382;52.252;8.780;2024-02-16T11:39:56;5.00;5.00;5.00
77320;PMS7003;66382;52.252;8.780;2024-02-16T11:42:21;5.00;5.00;4.00
77320;PMS7003;66382;52.252;8.780;2024-02-16T11:44:51;5.00;5.00;4.67
77320;PMS7003;66382;52.252;8.780;2024-02-16T11:47:18;5.00;5.00;4.00
77320;PMS7003;66382;52.252;8.780;2024-02-16T11:49:44;6.00;6.00;5.00
77320;PMS7003;66382;52.252;8.780;2024-02-16T11:52:11;7.50;7.50;6.00
77320;PMS7003;66382;52.252;8.780;2024-02-16T11:54:36;6.67;6.67;5.00
77320;PMS7003;66382;52.252;8.780;2024-02-16T11:57:02;7.00;7.00;6.33
77320;PMS7003;66382;52.252;8.780;2024-02-16T11:59:28;8.25;8.25;7.00
77320;PMS7003;66382;52.252;8.780;2024-02-16T12:01:55;6.00;6.00;4.33
77320;PMS7003;66382;52.252;8.780;2024-02-16T12:04:22;5.00;5.00;4.50
77320;PMS7003;66382;52.252;8.780;2024-02-16T12:06:50;4.25;4.25;3.25
77320;PMS7003;66382;52.252;8.780;2024-02-16T12:09:17;4.75;4.75;4.00
77320;PMS7003;66382;52.252;8.780;2024-02-16T12:11:43;4.75;4.75;4.25
77320;PMS7003;66382;52.252;8.780;2024-02-16T12:14:09;5.00;5.00;3.75
77320;PMS7003;66382;52.252;8.780;2024-02-16T12:16:36;5.00;5.00;4.00
77320;PMS7003;66382;52.252;8.780;2024-02-16T12:19:04;6.00;6.00;5.00
77320;PMS7003;66382;52.252;8.780;2024-02-16T12:21:30;5.00;5.00;4.00
77320;PMS7003;66382;52.252;8.780;2024-02-16T12:23:55;5.00;5.00;4.25
77320;PMS7003;66382;52.252;8.780;2024-02-16T12:26:21;5.67;5.67;4.00
77320;PMS7003;66382;52.252;8.780;2024-02-16T12:28:47;6.00;6.00;5.00
77320;PMS7003;66382;52.252;8.780;2024-02-16T12:31:17;5.00;5.00;4.00
77320;PMS7003;66382;52.252;8.780;2024-02-16T12:33:44;6.00;6.00;4.75
77320;PMS7003;66382;52.252;8.780;2024-02-16T12:36:10;6.67;6.67;5.00
77320;PMS7003;66382;52.252;8.780;2024-02-16T12:38:36;6.75;6.75;5.00
77320;PMS7003;66382;52.252;8.780;2024-02-16T12:41:01;6.00;6.00;5.00
77320;PMS7003;66382;52.252;8.780;2024-02-16T12:43:27;5.67;5.67;5.00
77320;PMS7003;66382;52.252;8.780;2024-02-16T12:45:52;7.00;7.00;5.00
77320;PMS7003;66382;52.252;8.780;2024-02-16T12:48:18;5.33;5.33;5.00
77320;PMS7003;66382;52.252;8.780;2024-02-16T12:50:43;4.33;4.33;3.00
77320;PMS7003;66382;52.252;8.780;2024-02-16T12:53:10;6.00;6.00;5.00
77320;PMS7003;66382;52.252;8.780;2024-02-16T12:55:35;6.50;6.50;5.00
77320;PMS7003;66382;52.252;8.780;2024-02-16T12:58:01;6.33;6.33;6.00
77320;PMS7003;66382;52.252;8.780;2024-02-16T13:00:26;9.00;9.00;7.00
77320;PMS7003;66382;52.252;8.780;2024-02-16T13:02:52;8.00;8.00;7.00
77320;PMS7003;66382;52.252;8.780;2024-02-16T13:05:17;8.00;8.00;6.33
77320;PMS7003;66382;52.252;8.780;2024-02-16T13:07:42;8.67;8.67;6.33
77320;PMS7003;66382;52.252;8.780;2024-02-16T13:10:09;8.00;8.00;7.00
77320;PMS7003;66382;52.252;8.780;2024-02-16T13:12:35;11.25;11.25;9.00
77320;PMS7003;66382;52.252;8.780;2024-02-16T13:15:00;7.00;7.00;6.67
77320;PMS7003;66382;52.252;8.780;2024-02-16T13:17:26;10.67;10.67;9.00
77320;PMS7003;66382;52.252;8.780;2024-02-16T13:19:51;11.00;11.00;9.00
77320;PMS7003;66382;52.252;8.780;2024-02-16T13:22:17;12.00;12.00;10.00
77320;PMS7003;66382;52.252;8.780;2024-02-16T13:24:42;14.33;14.33;10.33
77320;PMS7003;66382;52.252;8.780;2024-02-16T13:27:09;12.00;12.00;9.33
77320;PMS7003;66382;52.252;8.780;2024-02-16T13:29:34;11.75;11.75;10.00
77320;PMS7003;66382;52.252;8.780;2024-02-16T13:32:00;16.00;16.00;12.33
77320;PMS7003;66382;52.252;8.780;2024-02-16T13:34:26;13.67;13.67;10.67
77320;PMS7003;66382;52.252;8.780;2024-02-16T13:36:51;12.67;12.67;11.67
77320;PMS7003;66382;52.252;8.780;2024-02-16T13:39:17;17.67;17.33;11.67
77320;PMS7003;66382;52.252;8.780;2024-02-16T13:41:42;17.00;16.00;11.67
77320;PMS7003;66382;52.252;8.780;2024-02-16T13:44:09;17.33;17.33;11.33
77320;PMS7003;66382;52.252;8.780;2024-02-16T13:46:34;13.50;13.50;11.50
77320;PMS7003;66382;52.252;8.780;2024-02-16T13:49:00;18.67;18.67;13.67
77320;PMS7003;66382;52.252;8.780;2024-02-16T13:51:25;18.00;18.00;14.33
77320;PMS7003;66382;52.252;8.780;2024-02-16T13:53:51;14.33;14.33;9.67
77320;PMS7003;66382;52.252;8.780;2024-02-16T13:56:16;15.00;15.00;10.67
77320;PMS7003;66382;52.252;8.780;2024-02-16T13:58:42;15.00;13.33;10.00
77320;PMS7003;66382;52.252;8.780;2024-02-16T14:01:08;20.67;20.67;16.33
77320;PMS7003;66382;52.252;8.780;2024-02-16T14:03:34;17.00;17.00;14.50
77320;PMS7003;66382;52.252;8.780;2024-02-16T14:06:00;17.50;17.50;12.50
77320;PMS7003;66382;52.252;8.780;2024-02-16T14:08:26;17.25;17.25;12.50
77320;PMS7003;66382;52.252;8.780;2024-02-16T14:10:52;17.67;17.00;12.00
77320;PMS7003;66382;52.252;8.780;2024-02-16T14:13:17;18.33;18.33;13.33
77320;PMS7003;66382;52.252;8.780;2024-02-16T14:15:42;22.00;21.00;15.33